sensor_id;sensor_type;location;lat;lon;timestamp;pressure;altitude;pressure_sealevel;temperature;humidity
64551;BME280;50945;44.472;-123.352;2023-03-14T00:01:17;99953.88;;;5.98;100.00
64551;BME280;50945;44.472;-123.352;2023-03-14T00:03:46;99961.72;;;6.01;100.00
64551;BME280;50945;44.472;-123.352;2023-03-14T00:06:13;99964.78;;;6.06;100.00
64551;BME280;50945;44.472;-123.352;2023-03-14T00:08:41;99955.97;;;6.13;100.00
64551;BME280;50945;44.472;-123.352;2023-03-14T00:11:10;99961.59;;;6.19;100.00
64551;BME280;50945;44.472;-123.352;2023-03-14T00:13:37;99969.59;;;6.29;100.00
64551;BME280;50945;44.472;-123.352;2023-03-14T00:16:05;99966.38;;;6.42;100.00
64551;BME280;50945;44.472;-123.352;2023-03-14T00:18:32;99964.00;;;6.55;99.82
64551;BME280;50945;44.472;-123.352;2023-03-14T00:21:00;99967.25;;;6.67;96.36
64551;BME280;50945;44.472;-123.352;2023-03-14T00:23:28;99966.91;;;6.78;97.21
64551;BME280;50945;44.472;-123.352;2023-03-14T00:26:20;99974.56;;;6.83;97.74
64551;BME280;50945;44.472;-123.352;2023-03-14T00:28:45;99982.22;;;6.88;98.34
64551;BME280;50945;44.472;-123.352;2023-03-14T00:31:14;99965.56;;;6.91;98.12
64551;BME280;50945;44.472;-123.352;2023-03-14T00:33:41;99960.13;;;6.91;97.69
64551;BME280;50945;44.472;-123.352;2023-03-14T00:36:09;99968.81;;;6.86;95.81
64551;BME280;50945;44.472;-123.352;2023-03-14T00:38:36;99971.00;;;6.82;97.04
64551;BME280;50945;44.472;-123.352;2023-03-14T00:41:04;99976.78;;;6.79;96.94
64551;BME280;50945;44.472;-123.352;2023-03-14T00:43:31;99976.25;;;6.76;95.96
64551;BME280;50945;44.472;-123.352;2023-03-14T00:45:57;99971.16;;;6.73;96.59
64551;BME280;50945;44.472;-123.352;2023-03-14T00:48:23;99984.06;;;6.71;97.04
64551;BME280;50945;44.472;-123.352;2023-03-14T00:50:50;99970.81;;;6.68;97.06
64551;BME280;50945;44.472;-123.352;2023-03-14T00:53:17;99975.41;;;6.67;97.49
64551;BME280;50945;44.472;-123.352;2023-03-14T00:55:44;99977.44;;;6.65;97.60
64551;BME280;50945;44.472;-123.352;2023-03-14T00:58:13;99976.94;;;6.61;96.19
64551;BME280;50945;44.472;-123.352;2023-03-14T01:00:41;99975.91;;;6.62;97.44
64551;BME280;50945;44.472;-123.352;2023-03-14T01:03:08;99977.09;;;6.60;97.58
64551;BME280;50945;44.472;-123.352;2023-03-14T01:05:35;99978.97;;;6.59;96.98
64551;BME280;50945;44.472;-123.352;2023-03-14T01:08:02;99986.44;;;6.57;96.91
64551;BME280;50945;44.472;-123.352;2023-03-14T01:10:29;99978.09;;;6.59;97.07
64551;BME280;50945;44.472;-123.352;2023-03-14T01:12:55;99993.22;;;6.61;96.79
64551;BME280;50945;44.472;-123.352;2023-03-14T01:15:21;99988.31;;;6.65;96.86
64551;BME280;50945;44.472;-123.352;2023-03-14T01:17:48;99985.06;;;6.70;96.25
64551;BME280;50945;44.472;-123.352;2023-03-14T01:20:16;99986.44;;;6.74;96.03
64551;BME280;50945;44.472;-123.352;2023-03-14T01:22:43;99992.56;;;6.76;94.98
64551;BME280;50945;44.472;-123.352;2023-03-14T01:25:13;99991.19;;;6.80;94.38
64551;BME280;50945;44.472;-123.352;2023-03-14T01:27:40;99987.97;;;6.84;94.59
64551;BME280;50945;44.472;-123.352;2023-03-14T01:30:08;99997.47;;;6.89;95.17
64551;BME280;50945;44.472;-123.352;2023-03-14T01:32:36;99995.09;;;6.94;94.29
64551;BME280;50945;44.472;-123.352;2023-03-14T01:35:02;99998.00;;;6.92;93.80
64551;BME280;50945;44.472;-123.352;2023-03-14T01:37:29;100007.34;;;6.90;93.81
64551;BME280;50945;44.472;-123.352;2023-03-14T01:39:56;100005.28;;;6.83;93.11
64551;BME280;50945;44.472;-123.352;2023-03-14T01:42:26;100019.56;;;6.77;93.16
64551;BME280;50945;44.472;-123.352;2023-03-14T01:44:56;100016.34;;;6.74;93.65
64551;BME280;50945;44.472;-123.352;2023-03-14T01:47:24;100027.72;;;6.77;93.56
64551;BME280;50945;44.472;-123.352;2023-03-14T01:49:58;100024.13;;;6.77;93.19
64551;BME280;50945;44.472;-123.352;2023-03-14T01:52:29;100026.00;;;6.76;92.91
64551;BME280;50945;44.472;-123.352;2023-03-14T01:55:05;100029.25;;;6.72;93.22
64551;BME280;50945;44.472;-123.352;2023-03-14T01:57:37;100031.09;;;6.63;93.18
64551;BME280;50945;44.472;-123.352;2023-03-14T02:02:51;100034.28;;;6.42;93.86
64551;BME280;50945;44.472;-123.352;2023-03-14T02:05:22;100040.69;;;6.33;93.94
64551;BME280;50945;44.472;-123.352;2023-03-14T02:07:54;100039.97;;;6.22;94.18
64551;BME280;50945;44.472;-123.352;2023-03-14T02:10:28;100044.53;;;6.14;94.06
64551;BME280;50945;44.472;-123.352;2023-03-14T02:12:56;100045.50;;;6.04;94.21
64551;BME280;50945;44.472;-123.352;2023-03-14T02:15:23;100050.16;;;5.94;94.09
64551;BME280;50945;44.472;-123.352;2023-03-14T02:17:49;100043.16;;;5.83;94.33
64551;BME280;50945;44.472;-123.352;2023-03-14T02:20:25;100050.88;;;5.70;94.16
64551;BME280;50945;44.472;-123.352;2023-03-14T02:22:54;100042.34;;;5.57;94.48
64551;BME280;50945;44.472;-123.352;2023-03-14T02:27:48;100051.84;;;5.34;94.51
64551;BME280;50945;44.472;-123.352;2023-03-14T02:30:23;100053.97;;;5.23;94.92
64551;BME280;50945;44.472;-123.352;2023-03-14T02:33:00;100053.66;;;5.08;95.15
64551;BME280;50945;44.472;-123.352;2023-03-14T02:35:37;100063.03;;;4.95;95.37
64551;BME280;50945;44.472;-123.352;2023-03-14T02:39:11;100066.28;;;4.81;95.24
64551;BME280;50945;44.472;-123.352;2023-03-14T02:41:09;100066.38;;;4.71;95.90
64551;BME280;50945;44.472;-123.352;2023-03-14T02:43:36;100069.88;;;4.64;95.88
64551;BME280;50945;44.472;-123.352;2023-03-14T02:46:04;100077.34;;;4.52;96.10
64551;BME280;50945;44.472;-123.352;2023-03-14T02:48:33;100070.28;;;4.41;96.54
64551;BME280;50945;44.472;-123.352;2023-03-14T02:51:01;100080.31;;;4.31;97.05
64551;BME280;50945;44.472;-123.352;2023-03-14T02:53:33;100082.22;;;4.21;97.71
64551;BME280;50945;44.472;-123.352;2023-03-14T02:56:00;100091.22;;;4.11;97.98
64551;BME280;50945;44.472;-123.352;2023-03-14T02:58:27;100095.69;;;4.03;98.47
64551;BME280;50945;44.472;-123.352;2023-03-14T03:00:53;100095.13;;;3.99;98.88
64551;BME280;50945;44.472;-123.352;2023-03-14T03:03:20;100100.69;;;3.97;98.89
64551;BME280;50945;44.472;-123.352;2023-03-14T03:05:51;100114.06;;;3.99;98.89
64551;BME280;50945;44.472;-123.352;2023-03-14T03:08:19;100103.25;;;3.99;99.48
64551;BME280;50945;44.472;-123.352;2023-03-14T03:10:46;100112.19;;;3.99;99.38
64551;BME280;50945;44.472;-123.352;2023-03-14T03:13:13;100112.94;;;4.02;99.75
64551;BME280;50945;44.472;-123.352;2023-03-14T03:15:42;100110.94;;;4.04;99.75
64551;BME280;50945;44.472;-123.352;2023-03-14T03:18:09;100114.47;;;4.04;99.56
64551;BME280;50945;44.472;-123.352;2023-03-14T03:20:36;100119.88;;;4.04;99.79
64551;BME280;50945;44.472;-123.352;2023-03-14T03:23:03;100122.72;;;4.03;99.67
64551;BME280;50945;44.472;-123.352;2023-03-14T03:25:30;100125.59;;;4.01;99.69
64551;BME280;50945;44.472;-123.352;2023-03-14T03:27:56;100132.00;;;4.00;99.74
64551;BME280;50945;44.472;-123.352;2023-03-14T03:30:23;100130.28;;;3.99;100.00
64551;BME280;50945;44.472;-123.352;2023-03-14T03:32:49;100124.88;;;3.99;100.00
64551;BME280;50945;44.472;-123.352;2023-03-14T03:35:16;100137.72;;;3.97;100.00
64551;BME280;50945;44.472;-123.352;2023-03-14T03:37:42;100138.88;;;3.94;100.00
64551;BME280;50945;44.472;-123.352;2023-03-14T03:40:09;100148.09;;;3.92;100.00
64551;BME280;50945;44.472;-123.352;2023-03-14T03:42:36;100146.41;;;3.91;100.00
64551;BME280;50945;44.472;-123.352;2023-03-14T03:45:03;100148.09;;;3.92;100.00
64551;BME280;50945;44.472;-123.352;2023-03-14T03:47:30;100151.97;;;3.89;100.00
64551;BME280;50945;44.472;-123.352;2023-03-14T03:49:57;100156.38;;;3.90;100.00
64551;BME280;50945;44.472;-123.352;2023-03-14T03:52:24;100152.69;;;3.91;100.00
64551;BME280;50945;44.472;-123.352;2023-03-14T03:54:50;100161.63;;;3.92;100.00
64551;BME280;50945;44.472;-123.352;2023-03-14T03:57:17;100162.78;;;3.89;100.00
64551;BME280;50945;44.472;-123.352;2023-03-14T03:59:43;100170.16;;;3.87;100.00
64551;BME280;50945;44.472;-123.352;2023-03-14T04:02:09;100173.06;;;3.86;100.00
64551;BME280;50945;44.472;-123.352;2023-03-14T04:04:38;100174.31;;;3.81;100.00
64551;BME280;50945;44.472;-123.352;2023-03-14T04:07:05;100174.63;;;3.78;100.00
64551;BME280;50945;44.472;-123.352;2023-03-14T04:09:32;100183.03;;;3.75;100.00
64551;BME280;50945;44.472;-123.352;2023-03-14T04:11:59;100180.59;;;3.72;100.00
64551;BME280;50945;44.472;-123.352;2023-03-14T04:14:25;100192.72;;;3.68;100.00
64551;BME280;50945;44.472;-123.352;2023-03-14T04:16:51;100195.84;;;3.64;100.00
64551;BME280;50945;44.472;-123.352;2023-03-14T04:19:18;100200.69;;;3.60;100.00
64551;BME280;50945;44.472;-123.352;2023-03-14T04:21:47;100197.41;;;3.56;100.00
64551;BME280;50945;44.472;-123.352;2023-03-14T04:24:13;100204.25;;;3.51;99.84
64551;BME280;50945;44.472;-123.352;2023-03-14T04:26:42;100197.72;;;3.43;99.80
64551;BME280;50945;44.472;-123.352;2023-03-14T04:29:09;100207.09;;;3.39;100.00
64551;BME280;50945;44.472;-123.352;2023-03-14T04:31:35;100211.06;;;3.35;99.79
64551;BME280;50945;44.472;-123.352;2023-03-14T04:34:01;100212.50;;;3.30;99.71
64551;BME280;50945;44.472;-123.352;2023-03-14T04:36:28;100216.63;;;3.24;99.80
64551;BME280;50945;44.472;-123.352;2023-03-14T04:38:54;100224.28;;;3.19;99.36
64551;BME280;50945;44.472;-123.352;2023-03-14T04:41:21;100215.03;;;3.12;99.73
64551;BME280;50945;44.472;-123.352;2023-03-14T04:43:47;100225.81;;;3.02;99.06
64551;BME280;50945;44.472;-123.352;2023-03-14T04:46:13;100226.06;;;2.89;99.58
64551;BME280;50945;44.472;-123.352;2023-03-14T04:48:40;100222.78;;;2.76;100.00
64551;BME280;50945;44.472;-123.352;2023-03-14T04:51:06;100226.31;;;2.66;100.00
64551;BME280;50945;44.472;-123.352;2023-03-14T04:53:33;100219.88;;;2.58;100.00
64551;BME280;50945;44.472;-123.352;2023-03-14T04:56:00;100220.41;;;2.52;100.00
64551;BME280;50945;44.472;-123.352;2023-03-14T04:58:26;100227.22;;;2.46;100.00
64551;BME280;50945;44.472;-123.352;2023-03-14T05:00:53;100235.56;;;2.43;100.00
64551;BME280;50945;44.472;-123.352;2023-03-14T05:03:19;100240.38;;;2.39;100.00
64551;BME280;50945;44.472;-123.352;2023-03-14T05:05:46;100250.72;;;2.34;100.00
64551;BME280;50945;44.472;-123.352;2023-03-14T05:08:12;100246.97;;;2.25;100.00
64551;BME280;50945;44.472;-123.352;2023-03-14T05:10:38;100256.22;;;2.23;100.00
64551;BME280;50945;44.472;-123.352;2023-03-14T05:13:06;100251.53;;;2.25;100.00
64551;BME280;50945;44.472;-123.352;2023-03-14T05:15:35;100254.22;;;2.25;100.00
64551;BME280;50945;44.472;-123.352;2023-03-14T05:18:01;100252.66;;;2.22;100.00
64551;BME280;50945;44.472;-123.352;2023-03-14T05:20:28;100251.78;;;2.22;100.00
64551;BME280;50945;44.472;-123.352;2023-03-14T05:22:54;100253.06;;;2.18;100.00
64551;BME280;50945;44.472;-123.352;2023-03-14T05:25:20;100260.16;;;2.19;100.00
64551;BME280;50945;44.472;-123.352;2023-03-14T05:27:47;100260.03;;;2.20;100.00
64551;BME280;50945;44.472;-123.352;2023-03-14T05:30:13;100259.03;;;2.21;100.00
64551;BME280;50945;44.472;-123.352;2023-03-14T05:32:39;100254.50;;;2.22;100.00
64551;BME280;50945;44.472;-123.352;2023-03-14T05:35:06;100256.22;;;2.23;100.00
64551;BME280;50945;44.472;-123.352;2023-03-14T05:37:32;100254.66;;;2.20;100.00
64551;BME280;50945;44.472;-123.352;2023-03-14T05:40:00;100256.47;;;2.20;100.00
64551;BME280;50945;44.472;-123.352;2023-03-14T05:42:26;100261.00;;;2.19;100.00
64551;BME280;50945;44.472;-123.352;2023-03-14T05:44:52;100261.84;;;2.20;100.00
64551;BME280;50945;44.472;-123.352;2023-03-14T05:47:19;100258.31;;;2.19;100.00
64551;BME280;50945;44.472;-123.352;2023-03-14T05:49:45;100260.03;;;2.20;100.00
64551;BME280;50945;44.472;-123.352;2023-03-14T05:52:11;100256.34;;;2.21;100.00
64551;BME280;50945;44.472;-123.352;2023-03-14T05:54:38;100255.63;;;2.19;100.00
64551;BME280;50945;44.472;-123.352;2023-03-14T05:57:04;100255.75;;;2.18;100.00
64551;BME280;50945;44.472;-123.352;2023-03-14T05:59:30;100248.63;;;2.17;100.00
64551;BME280;50945;44.472;-123.352;2023-03-14T06:01:56;100252.47;;;2.14;100.00
64551;BME280;50945;44.472;-123.352;2023-03-14T06:04:25;100250.31;;;2.08;100.00
64551;BME280;50945;44.472;-123.352;2023-03-14T06:06:51;100260.91;;;2.00;100.00
64551;BME280;50945;44.472;-123.352;2023-03-14T06:09:17;100258.00;;;1.92;100.00
64551;BME280;50945;44.472;-123.352;2023-03-14T06:11:45;100253.97;;;1.86;100.00
64551;BME280;50945;44.472;-123.352;2023-03-14T06:14:12;100255.38;;;1.80;100.00
64551;BME280;50945;44.472;-123.352;2023-03-14T06:16:38;100253.19;;;1.74;100.00
64551;BME280;50945;44.472;-123.352;2023-03-14T06:19:04;100249.75;;;1.72;100.00
64551;BME280;50945;44.472;-123.352;2023-03-14T06:21:30;100253.47;;;1.71;100.00
64551;BME280;50945;44.472;-123.352;2023-03-14T06:23:57;100259.69;;;1.71;100.00
64551;BME280;50945;44.472;-123.352;2023-03-14T06:26:23;100262.41;;;1.71;100.00
64551;BME280;50945;44.472;-123.352;2023-03-14T06:28:50;100253.47;;;1.71;100.00
64551;BME280;50945;44.472;-123.352;2023-03-14T06:31:17;100263.38;;;1.70;100.00
64551;BME280;50945;44.472;-123.352;2023-03-14T06:33:43;100257.38;;;1.67;100.00
64551;BME280;50945;44.472;-123.352;2023-03-14T06:36:09;100261.06;;;1.66;100.00
64551;BME280;50945;44.472;-123.352;2023-03-14T06:38:36;100262.19;;;1.63;100.00
64551;BME280;50945;44.472;-123.352;2023-03-14T06:41:06;100270.66;;;1.59;100.00
64551;BME280;50945;44.472;-123.352;2023-03-14T06:43:33;100273.59;;;1.56;100.00
64551;BME280;50945;44.472;-123.352;2023-03-14T06:46:00;100271.75;;;1.56;100.00
64551;BME280;50945;44.472;-123.352;2023-03-14T06:48:26;100260.97;;;1.56;100.00
64551;BME280;50945;44.472;-123.352;2023-03-14T06:50:53;100261.84;;;1.57;100.00
64551;BME280;50945;44.472;-123.352;2023-03-14T06:53:19;100258.28;;;1.56;100.00
64551;BME280;50945;44.472;-123.352;2023-03-14T06:55:46;100266.53;;;1.55;100.00
64551;BME280;50945;44.472;-123.352;2023-03-14T06:58:12;100263.34;;;1.49;100.00
64551;BME280;50945;44.472;-123.352;2023-03-14T07:00:38;100263.00;;;1.43;100.00
64551;BME280;50945;44.472;-123.352;2023-03-14T07:03:05;100261.56;;;1.39;100.00
64551;BME280;50945;44.472;-123.352;2023-03-14T07:05:31;100262.78;;;1.35;100.00
64551;BME280;50945;44.472;-123.352;2023-03-14T07:07:58;100254.69;;;1.35;100.00
64551;BME280;50945;44.472;-123.352;2023-03-14T07:10:24;100257.28;;;1.36;100.00
64551;BME280;50945;44.472;-123.352;2023-03-14T07:12:51;100247.22;;;1.38;100.00
64551;BME280;50945;44.472;-123.352;2023-03-14T07:15:21;100252.34;;;1.41;100.00
64551;BME280;50945;44.472;-123.352;2023-03-14T07:17:47;100265.59;;;1.44;100.00
64551;BME280;50945;44.472;-123.352;2023-03-14T07:20:16;100253.81;;;1.45;100.00
64551;BME280;50945;44.472;-123.352;2023-03-14T07:22:43;100266.19;;;1.48;100.00
64551;BME280;50945;44.472;-123.352;2023-03-14T07:25:09;100267.16;;;1.47;100.00
64551;BME280;50945;44.472;-123.352;2023-03-14T07:27:39;100261.75;;;1.47;100.00
64551;BME280;50945;44.472;-123.352;2023-03-14T07:30:06;100270.84;;;1.46;100.00
64551;BME280;50945;44.472;-123.352;2023-03-14T07:32:32;100268.28;;;1.44;100.00
64551;BME280;50945;44.472;-123.352;2023-03-14T07:34:58;100261.28;;;1.42;100.00
64551;BME280;50945;44.472;-123.352;2023-03-14T07:37:24;100264.25;;;1.39;100.00
64551;BME280;50945;44.472;-123.352;2023-03-14T07:39:51;100256.66;;;1.32;100.00
64551;BME280;50945;44.472;-123.352;2023-03-14T07:42:17;100244.69;;;1.25;100.00
64551;BME280;50945;44.472;-123.352;2023-03-14T07:44:43;100245.34;;;1.18;100.00
64551;BME280;50945;44.472;-123.352;2023-03-14T07:47:09;100254.91;;;1.10;100.00
64551;BME280;50945;44.472;-123.352;2023-03-14T07:49:36;100242.94;;;1.03;100.00
64551;BME280;50945;44.472;-123.352;2023-03-14T07:52:02;100248.69;;;0.99;100.00
64551;BME280;50945;44.472;-123.352;2023-03-14T07:54:28;100251.28;;;0.89;100.00
64551;BME280;50945;44.472;-123.352;2023-03-14T07:56:54;100258.28;;;0.80;100.00
64551;BME280;50945;44.472;-123.352;2023-03-14T07:59:21;100257.66;;;0.77;100.00
64551;BME280;50945;44.472;-123.352;2023-03-14T08:01:47;100259.38;;;0.78;100.00
64551;BME280;50945;44.472;-123.352;2023-03-14T08:04:13;100248.25;;;0.82;100.00
64551;BME280;50945;44.472;-123.352;2023-03-14T08:06:39;100251.28;;;0.89;100.00
64551;BME280;50945;44.472;-123.352;2023-03-14T08:09:06;100259.69;;;0.95;100.00
64551;BME280;50945;44.472;-123.352;2023-03-14T08:11:32;100259.22;;;1.02;100.00
64551;BME280;50945;44.472;-123.352;2023-03-14T08:13:58;100264.31;;;1.05;100.00
64551;BME280;50945;44.472;-123.352;2023-03-14T08:16:24;100265.31;;;1.04;100.00
64551;BME280;50945;44.472;-123.352;2023-03-14T08:18:51;100262.63;;;1.04;100.00
64551;BME280;50945;44.472;-123.352;2023-03-14T08:21:17;100268.13;;;1.02;100.00
64551;BME280;50945;44.472;-123.352;2023-03-14T08:23:43;100265.69;;;0.99;100.00
64551;BME280;50945;44.472;-123.352;2023-03-14T08:26:10;100249.66;;;0.98;100.00
64551;BME280;50945;44.472;-123.352;2023-03-14T08:28:36;100252.34;;;0.98;100.00
64551;BME280;50945;44.472;-123.352;2023-03-14T08:31:02;100253.34;;;0.97;100.00
64551;BME280;50945;44.472;-123.352;2023-03-14T08:33:29;100246.63;;;0.91;100.00
64551;BME280;50945;44.472;-123.352;2023-03-14T08:35:59;100247.25;;;0.83;100.00
64551;BME280;50945;44.472;-123.352;2023-03-14T08:38:26;100247.88;;;0.75;100.00
64551;BME280;50945;44.472;-123.352;2023-03-14T08:41:01;100255.34;;;0.72;100.00
64551;BME280;50945;44.472;-123.352;2023-03-14T08:43:28;100257.41;;;0.68;100.00
64551;BME280;50945;44.472;-123.352;2023-03-14T08:45:58;100261.34;;;0.64;100.00
64551;BME280;50945;44.472;-123.352;2023-03-14T08:48:25;100265.34;;;0.59;100.00
64551;BME280;50945;44.472;-123.352;2023-03-14T08:50:51;100258.41;;;0.56;100.00
64551;BME280;50945;44.472;-123.352;2023-03-14T08:53:17;100245.06;;;0.54;100.00
64551;BME280;50945;44.472;-123.352;2023-03-14T08:55:44;100235.66;;;0.49;100.00
64551;BME280;50945;44.472;-123.352;2023-03-14T08:58:10;100243.84;;;0.47;100.00
64551;BME280;50945;44.472;-123.352;2023-03-14T09:00:36;100243.38;;;0.42;100.00
64551;BME280;50945;44.472;-123.352;2023-03-14T09:03:03;100240.56;;;0.44;100.00
64551;BME280;50945;44.472;-123.352;2023-03-14T09:05:33;100245.09;;;0.43;100.00
64551;BME280;50945;44.472;-123.352;2023-03-14T09:08:00;100245.94;;;0.44;100.00
64551;BME280;50945;44.472;-123.352;2023-03-14T09:10:26;100259.16;;;0.47;100.00
64551;BME280;50945;44.472;-123.352;2023-03-14T09:12:53;100260.09;;;0.46;100.00
64551;BME280;50945;44.472;-123.352;2023-03-14T09:15:19;100259.25;;;0.45;100.00
64551;BME280;50945;44.472;-123.352;2023-03-14T09:17:45;100256.94;;;0.41;100.00
64551;BME280;50945;44.472;-123.352;2023-03-14T09:20:11;100255.34;;;0.38;100.00
64551;BME280;50945;44.472;-123.352;2023-03-14T09:22:39;100252.66;;;0.38;100.00
64551;BME280;50945;44.472;-123.352;2023-03-14T09:25:06;100250.09;;;0.36;100.00
64551;BME280;50945;44.472;-123.352;2023-03-14T09:27:32;100253.75;;;0.35;100.00
64551;BME280;50945;44.472;-123.352;2023-03-14T09:29:59;100251.31;;;0.32;100.00
64551;BME280;50945;44.472;-123.352;2023-03-14T09:32:25;100250.72;;;0.29;100.00
64551;BME280;50945;44.472;-123.352;2023-03-14T09:34:52;100242.03;;;0.25;100.00
64551;BME280;50945;44.472;-123.352;2023-03-14T09:37:18;100244.72;;;0.25;100.00
64551;BME280;50945;44.472;-123.352;2023-03-14T09:39:45;100247.28;;;0.27;100.00
64551;BME280;50945;44.472;-123.352;2023-03-14T09:42:15;100240.06;;;0.27;100.00
64551;BME280;50945;44.472;-123.352;2023-03-14T09:44:53;100232.97;;;0.26;100.00
64551;BME280;50945;44.472;-123.352;2023-03-14T09:47:20;100238.34;;;0.26;100.00
64551;BME280;50945;44.472;-123.352;2023-03-14T09:49:48;100233.09;;;0.25;100.00
64551;BME280;50945;44.472;-123.352;2023-03-14T09:54:55;100222.31;;;0.25;100.00
64551;BME280;50945;44.472;-123.352;2023-03-14T09:57:27;100230.28;;;0.26;100.00
64551;BME280;50945;44.472;-123.352;2023-03-14T09:59:57;100228.09;;;0.31;100.00
64551;BME280;50945;44.472;-123.352;2023-03-14T10:02:34;100229.41;;;0.37;100.00
64551;BME280;50945;44.472;-123.352;2023-03-14T10:05:01;100220.00;;;0.43;100.00
64551;BME280;50945;44.472;-123.352;2023-03-14T10:07:32;100219.66;;;0.47;100.00
64551;BME280;50945;44.472;-123.352;2023-03-14T10:09:59;100214.16;;;0.49;100.00
64551;BME280;50945;44.472;-123.352;2023-03-14T10:12:36;100220.97;;;0.53;100.00
64551;BME280;50945;44.472;-123.352;2023-03-14T10:15:08;100215.13;;;0.59;100.00
64551;BME280;50945;44.472;-123.352;2023-03-14T10:17:42;100215.00;;;0.61;100.00
64551;BME280;50945;44.472;-123.352;2023-03-14T10:23:27;100208.50;;;0.63;100.00
64551;BME280;50945;44.472;-123.352;2023-03-14T10:26:14;100204.84;;;0.64;100.00
64551;BME280;50945;44.472;-123.352;2023-03-14T10:28:47;100206.41;;;0.67;100.00
64551;BME280;50945;44.472;-123.352;2023-03-14T10:31:15;100204.22;;;0.72;100.00
64551;BME280;50945;44.472;-123.352;2023-03-14T10:33:41;100196.13;;;0.72;100.00
64551;BME280;50945;44.472;-123.352;2023-03-14T10:36:40;100197.72;;;0.74;100.00
64551;BME280;50945;44.472;-123.352;2023-03-14T10:41:48;100185.97;;;0.75;100.00
64551;BME280;50945;44.472;-123.352;2023-03-14T10:44:20;100183.66;;;0.71;100.00
64551;BME280;50945;44.472;-123.352;2023-03-14T10:46:59;100171.44;;;0.67;100.00
64551;BME280;50945;44.472;-123.352;2023-03-14T10:49:35;100177.06;;;0.64;100.00
64551;BME280;50945;44.472;-123.352;2023-03-14T10:52:25;100181.47;;;0.65;100.00
64551;BME280;50945;44.472;-123.352;2023-03-14T10:55:01;100171.44;;;0.67;100.00
64551;BME280;50945;44.472;-123.352;2023-03-14T10:57:28;100169.34;;;0.70;100.00
64551;BME280;50945;44.472;-123.352;2023-03-14T10:59:55;100165.41;;;0.74;100.00
64551;BME280;50945;44.472;-123.352;2023-03-14T11:07:35;100156.66;;;0.61;100.00
64551;BME280;50945;44.472;-123.352;2023-03-14T11:18:13;100146.19;;;0.47;100.00
64551;BME280;50945;44.472;-123.352;2023-03-14T11:20:55;100143.59;;;0.45;100.00
64551;BME280;50945;44.472;-123.352;2023-03-14T11:23:33;100141.03;;;0.44;100.00
64551;BME280;50945;44.472;-123.352;2023-03-14T11:26:36;100143.00;;;0.42;100.00
64551;BME280;50945;44.472;-123.352;2023-03-14T11:29:39;100143.97;;;0.41;100.00
64551;BME280;50945;44.472;-123.352;2023-03-14T11:32:16;100142.88;;;0.43;100.00
64551;BME280;50945;44.472;-123.352;2023-03-14T11:34:54;100133.09;;;0.42;100.00
64551;BME280;50945;44.472;-123.352;2023-03-14T11:37:34;100134.34;;;0.38;100.00
64551;BME280;50945;44.472;-123.352;2023-03-14T11:40:23;100128.22;;;0.36;100.00
64551;BME280;50945;44.472;-123.352;2023-03-14T11:43:15;100133.84;;;0.33;100.00
64551;BME280;50945;44.472;-123.352;2023-03-14T11:45:43;100125.06;;;0.31;100.00
64551;BME280;50945;44.472;-123.352;2023-03-14T11:48:24;100124.44;;;0.27;100.00
64551;BME280;50945;44.472;-123.352;2023-03-14T11:50:57;100123.72;;;0.25;100.00
64551;BME280;50945;44.472;-123.352;2023-03-14T11:53:36;100135.44;;;0.24;100.00
64551;BME280;50945;44.472;-123.352;2023-03-14T11:56:14;100133.59;;;0.25;100.00
64551;BME280;50945;44.472;-123.352;2023-03-14T11:58:57;100123.97;;;0.22;100.00
64551;BME280;50945;44.472;-123.352;2023-03-14T12:01:30;100120.53;;;0.20;100.00
64551;BME280;50945;44.472;-123.352;2023-03-14T12:04:19;100123.22;;;0.20;100.00
64551;BME280;50945;44.472;-123.352;2023-03-14T12:06:49;100115.06;;;0.22;100.00
64551;BME280;50945;44.472;-123.352;2023-03-14T12:09:20;100119.44;;;0.23;100.00
64551;BME280;50945;44.472;-123.352;2023-03-14T12:11:56;100116.75;;;0.23;100.00
64551;BME280;50945;44.472;-123.352;2023-03-14T12:14:29;100120.31;;;0.23;100.00
64551;BME280;50945;44.472;-123.352;2023-03-14T12:19:33;100112.47;;;0.20;100.00
64551;BME280;50945;44.472;-123.352;2023-03-14T12:22:23;100100.72;;;0.21;100.00
64551;BME280;50945;44.472;-123.352;2023-03-14T12:24:55;100102.56;;;0.21;100.00
64551;BME280;50945;44.472;-123.352;2023-03-14T12:35:51;100085.13;;;0.15;100.00
64551;BME280;50945;44.472;-123.352;2023-03-14T12:38:52;100080.59;;;0.15;100.00
64551;BME280;50945;44.472;-123.352;2023-03-14T12:41:42;100078.88;;;0.14;100.00
64551;BME280;50945;44.472;-123.352;2023-03-14T12:46:57;100058.22;;;0.15;100.00
64551;BME280;50945;44.472;-123.352;2023-03-14T12:49:35;100061.75;;;0.15;100.00
64551;BME280;50945;44.472;-123.352;2023-03-14T12:52:16;100059.91;;;0.16;100.00
64551;BME280;50945;44.472;-123.352;2023-03-14T12:57:32;100046.34;;;0.17;100.00
64551;BME280;50945;44.472;-123.352;2023-03-14T13:00:22;100052.97;;;0.13;100.00
64551;BME280;50945;44.472;-123.352;2023-03-14T13:02:50;100055.66;;;0.13;100.00
64551;BME280;50945;44.472;-123.352;2023-03-14T13:05:22;100050.28;;;0.13;100.00
64551;BME280;50945;44.472;-123.352;2023-03-14T13:10:28;100045.63;;;0.15;100.00
64551;BME280;50945;44.472;-123.352;2023-03-14T13:15:44;100045.63;;;0.15;100.00
64551;BME280;50945;44.472;-123.352;2023-03-14T13:18:26;100037.09;;;0.22;100.00
64551;BME280;50945;44.472;-123.352;2023-03-14T13:21:03;100033.41;;;0.23;100.00
64551;BME280;50945;44.472;-123.352;2023-03-14T13:23:33;100030.47;;;0.26;100.00
64551;BME280;50945;44.472;-123.352;2023-03-14T13:26:00;100024.13;;;0.27;100.00